Time;durP1;ratioP1;P1;durP2;ratioP2;P2;SDS_P1;SDS_P2;PMS_P1;PMS_P2;Temp;Humidity;BMP_temperature;BMP_pressure;BME280_temperature;BME280_humidity;BME280_pressure;Samples;Min_cycle;Max_cycle;Signal;HPM_P1;HPM_P2
2022/01/18 00:01:36;;;;;;;17.73;4.03;;;5.90;99.90;;;;;;5035041;28;20195;-61
2022/01/18 00:04:04;;;;;;;22.67;5.05;;;5.90;99.90;;;;;;5034526;28;20202;-61
2022/01/18 00:06:31;;;;;;;19.65;4.88;;;5.90;99.90;;;;;;5035639;28;20202;-61
2022/01/18 00:08:58;;;;;;;13.55;5.05;;;5.80;99.90;;;;;;5034926;28;20202;-59
2022/01/18 00:11:28;;;;;;;16.30;3.35;;;5.80;99.90;;;;;;5035238;28;20199;-61
2022/01/18 00:14:01;;;;;;;21.77;3.95;;;5.90;99.90;;;;;;5034333;28;20234;-62
2022/01/18 00:16:36;;;;;;;17.63;3.75;;;5.80;99.90;;;;;;5033507;28;20209;-60
2022/01/18 00:19:08;;;;;;;19.08;3.78;;;5.90;99.90;;;;;;5033243;28;20190;-60
2022/01/18 00:21:51;;;;;;;25.15;4.22;;;5.90;99.90;;;;;;5033112;28;20187;-61
2022/01/18 00:24:18;;;;;;;10.13;3.45;;;5.90;99.90;;;;;;5034340;28;20309;-59
2022/01/18 00:26:45;;;;;;;19.33;3.75;;;5.90;99.90;;;;;;5037422;28;20202;-61
2022/01/18 00:29:17;;;;;;;17.83;3.80;;;5.90;99.90;;;;;;5037422;28;20558;-61
2022/01/18 00:32:08;;;;;;;14.32;3.03;;;5.90;99.90;;;;;;5037517;28;20183;-60
2022/01/18 00:34:37;;;;;;;14.02;3.40;;;5.90;99.90;;;;;;5037490;28;20210;-61
2022/01/18 00:39:49;;;;;;;15.82;4.63;;;5.70;99.90;;;;;;5036941;28;20181;-60
2022/01/18 00:42:17;;;;;;;18.52;3.17;;;5.60;99.90;;;;;;5037186;28;20222;-61
2022/01/18 00:44:44;;;;;;;15.82;3.97;;;5.60;99.90;;;;;;5037655;28;20297;-61
2022/01/18 00:47:12;;;;;;;17.77;5.63;;;5.50;99.90;;;;;;5037545;28;20209;-61
2022/01/18 00:49:44;;;;;;;12.55;4.00;;;5.50;99.90;;;;;;5037273;28;20202;-62
2022/01/18 00:52:12;;;;;;;18.77;3.90;;;5.40;99.90;;;;;;5037176;28;20222;-61
2022/01/18 00:54:43;;;;;;;17.13;3.05;;;5.40;99.90;;;;;;5036786;28;20218;-60
2022/01/18 00:57:11;;;;;;;11.75;3.42;;;5.40;99.90;;;;;;5038497;28;20198;-60
2022/01/18 00:59:40;;;;;;;17.42;3.30;;;5.40;99.90;;;;;;5040322;28;20206;-58
2022/01/18 01:02:07;;;;;;;23.17;4.65;;;5.40;99.90;;;;;;5037668;28;20245;-61
2022/01/18 01:04:41;;;;;;;18.63;4.22;;;5.50;99.90;;;;;;5037104;28;20199;-61
2022/01/18 01:07:08;;;;;;;15.10;3.60;;;5.50;99.90;;;;;;5037166;28;20190;-61
2022/01/18 01:09:37;;;;;;;18.63;5.03;;;5.50;99.90;;;;;;5036414;28;20202;-61
2022/01/18 01:12:05;;;;;;;19.17;4.90;;;5.50;99.90;;;;;;5036641;28;20269;-61
2022/01/18 01:14:33;;;;;;;19.95;5.47;;;5.50;99.90;;;;;;5036600;28;20222;-61
2022/01/18 01:17:12;;;;;;;15.63;3.70;;;5.50;99.90;;;;;;5041581;28;20578;-60
2022/01/18 01:31:58;;;;;;;13.00;4.85;;;5.50;99.90;;;;;;5036617;28;20186;-60
2022/01/18 01:44:36;;;;;;;12.07;3.80;;;5.40;99.90;;;;;;5035628;28;20201;-59
2022/01/18 01:47:04;;;;;;;12.77;4.20;;;5.50;99.90;;;;;;5035586;28;20222;-59
2022/01/18 01:49:31;;;;;;;11.20;3.55;;;5.50;99.90;;;;;;5047932;28;20671;-61
2022/01/18 01:52:03;;;;;;;14.95;4.10;;;5.40;99.90;;;;;;5039668;28;20226;-61
2022/01/18 01:54:31;;;;;;;11.57;3.00;;;5.50;99.90;;;;;;5044500;28;20209;-59
2022/01/18 01:56:58;;;;;;;7.78;3.13;;;5.50;99.90;;;;;;5049200;28;20206;-61
2022/01/18 01:59:25;;;;;;;10.73;3.90;;;5.50;99.90;;;;;;5052947;28;20202;-60
2022/01/18 02:01:52;;;;;;;13.30;3.28;;;5.50;99.90;;;;;;5051258;28;20210;-61
2022/01/18 02:04:19;;;;;;;12.73;3.08;;;5.50;99.90;;;;;;5052461;28;20198;-61
2022/01/18 02:06:46;;;;;;;13.68;3.20;;;5.50;99.90;;;;;;5043949;28;20198;-62
2022/01/18 02:09:15;;;;;;;8.05;3.15;;;5.50;99.90;;;;;;5038321;28;20217;-62
2022/01/18 02:11:42;;;;;;;12.30;3.70;;;5.50;99.90;;;;;;5036900;28;20199;-62
2022/01/18 02:14:15;;;;;;;7.85;2.92;;;5.50;99.90;;;;;;5043165;28;20218;-61
2022/01/18 02:22:13;;;;;;;10.10;3.17;;;5.50;99.90;;;;;;5054991;28;20755;-61
2022/01/18 02:24:40;;;;;;;18.38;3.97;;;5.50;99.90;;;;;;5040453;28;20199;-61
2022/01/18 02:27:08;;;;;;;8.07;2.63;;;5.50;99.90;;;;;;5038095;28;20321;-61
2022/01/18 02:29:35;;;;;;;9.13;3.53;;;5.60;99.90;;;;;;5035919;28;20213;-61
2022/01/18 02:32:02;;;;;;;14.95;3.20;;;5.60;99.90;;;;;;5038642;28;20241;-60
2022/01/18 02:34:29;;;;;;;16.63;3.47;;;5.60;99.90;;;;;;5038170;28;20225;-61
2022/01/18 02:36:57;;;;;;;13.20;3.60;;;5.50;99.90;;;;;;5036129;28;20202;-61
2022/01/18 02:39:28;;;;;;;15.68;3.75;;;5.60;99.90;;;;;;5035470;28;20264;-61
2022/01/18 02:41:57;;;;;;;10.57;3.30;;;5.50;99.90;;;;;;5035138;28;20193;-61
2022/01/18 02:44:24;;;;;;;19.77;4.55;;;5.50;99.90;;;;;;5034980;28;20304;-61
2022/01/18 02:46:52;;;;;;;12.05;4.97;;;5.50;99.90;;;;;;5035007;28;20202;-61
2022/01/18 02:49:19;;;;;;;18.98;4.68;;;5.50;99.90;;;;;;5033791;28;20210;-60
2022/01/18 02:51:47;;;;;;;11.85;3.65;;;5.40;99.90;;;;;;5034815;28;20568;-61
2022/01/18 02:54:17;;;;;;;15.52;4.15;;;5.50;99.90;;;;;;5034242;28;20222;-60
2022/01/18 02:56:49;;;;;;;14.75;3.30;;;5.40;99.90;;;;;;5034549;28;20234;-61
2022/01/18 02:59:25;;;;;;;13.48;3.50;;;5.40;99.90;;;;;;5034806;28;20187;-61
2022/01/18 03:04:39;;;;;;;10.90;3.40;;;5.50;99.90;;;;;;5034510;28;20642;-61
2022/01/18 03:07:06;;;;;;;15.98;4.05;;;5.40;99.90;;;;;;5034373;28;20286;-61
2022/01/18 03:09:33;;;;;;;15.57;4.13;;;5.40;99.90;;;;;;5034410;28;20202;-60
2022/01/18 03:12:02;;;;;;;11.20;3.50;;;5.50;99.90;;;;;;5034378;28;20226;-61
2022/01/18 03:14:29;;;;;;;9.30;2.90;;;5.40;99.90;;;;;;5035600;28;20224;-60
2022/01/18 03:16:56;;;;;;;15.63;4.55;;;5.50;99.90;;;;;;5034705;28;20213;-60
2022/01/18 03:19:23;;;;;;;11.63;3.65;;;5.40;99.90;;;;;;5034259;28;20202;-60
2022/01/18 03:21:53;;;;;;;10.35;3.70;;;5.50;99.90;;;;;;5034162;28;20210;-61
2022/01/18 03:24:42;;;;;;;9.45;3.70;;;5.50;99.90;;;;;;5034426;28;20191;-61
2022/01/18 03:29:54;;;;;;;13.35;4.07;;;5.50;99.90;;;;;;5034540;28;20240;-61
2022/01/18 03:32:22;;;;;;;11.50;4.25;;;5.50;99.90;;;;;;5034627;28;20253;-61
2022/01/18 03:34:49;;;;;;;9.65;4.50;;;5.50;99.90;;;;;;5034059;28;20215;-61
2022/01/18 03:37:16;;;;;;;6.22;3.20;;;5.50;99.90;;;;;;5034206;28;20202;-61
2022/01/18 03:39:43;;;;;;;9.98;3.25;;;5.50;99.90;;;;;;5034060;28;20213;-60
2022/01/18 03:42:35;;;;;;;6.82;3.25;;;5.40;99.90;;;;;;5033707;28;20706;-62
2022/01/18 03:45:04;;;;;;;9.27;3.50;;;5.40;99.90;;;;;;5035090;28;20654;-61
2022/01/18 03:47:32;;;;;;;10.35;3.17;;;5.50;99.90;;;;;;5034684;28;20210;-61
2022/01/18 03:49:59;;;;;;;7.97;3.33;;;5.50;99.90;;;;;;5034125;28;20202;-61
2022/01/18 03:52:26;;;;;;;10.88;4.05;;;5.50;99.90;;;;;;5033673;28;20222;-62
2022/01/18 03:54:54;;;;;;;12.13;3.85;;;5.50;99.90;;;;;;5033436;28;20225;-61
2022/01/18 03:57:23;;;;;;;7.82;4.15;;;5.50;99.90;;;;;;5033774;28;20285;-60
2022/01/18 03:59:50;;;;;;;11.95;4.38;;;5.50;99.90;;;;;;5033289;28;20213;-61
2022/01/18 04:02:18;;;;;;;11.18;4.00;;;5.50;99.90;;;;;;5037188;28;20226;-60
2022/01/18 04:04:46;;;;;;;14.85;4.97;;;5.60;99.90;;;;;;5045402;28;20202;-61
2022/01/18 04:09:09;;;;;;;16.43;5.37;;;5.50;99.90;;;;;;5116233;27;1470764;-60
2022/01/18 04:11:36;;;;;;;7.88;4.15;;;5.60;99.90;;;;;;5139147;28;20199;-61
2022/01/18 04:14:04;;;;;;;14.68;4.38;;;5.60;99.90;;;;;;5111722;28;20200;-61
2022/01/18 04:16:41;;;;;;;8.68;4.70;;;5.60;99.90;;;;;;5111777;28;20208;-61
2022/01/18 04:19:34;;;;;;;9.70;5.13;;;5.60;99.90;;;;;;5132904;22;20184;-55
2022/01/18 04:27:30;;;;;;;14.45;5.35;;;5.60;99.90;;;;;;5090135;28;20598;-55
2022/01/18 04:29:57;;;;;;;11.32;6.00;;;5.60;99.90;;;;;;5099069;28;20215;-54
2022/01/18 04:32:24;;;;;;;16.77;6.00;;;5.60;99.90;;;;;;5110773;28;20595;-55
2022/01/18 04:34:51;;;;;;;14.70;5.60;;;5.60;99.90;;;;;;5110247;28;20547;-56
2022/01/18 04:37:18;;;;;;;10.65;5.38;;;5.60;99.90;;;;;;5110829;28;20557;-54
2022/01/18 04:39:48;;;;;;;16.50;5.55;;;5.60;99.90;;;;;;5110273;28;20223;-56
2022/01/18 04:42:19;;;;;;;11.20;5.97;;;5.70;99.90;;;;;;5110730;28;20230;-55
2022/01/18 04:50:17;;;;;;;10.88;5.05;;;5.70;99.90;;;;;;5110525;28;20223;-56
2022/01/18 04:52:44;;;;;;;12.65;5.30;;;5.70;99.90;;;;;;5110397;28;20675;-55
2022/01/18 04:55:13;;;;;;;14.00;5.38;;;5.60;99.90;;;;;;5110360;28;20567;-56
2022/01/18 04:57:55;;;;;;;9.55;6.28;;;5.60;99.90;;;;;;5110717;28;20203;-55
2022/01/18 05:00:23;;;;;;;13.10;5.10;;;5.70;99.90;;;;;;5110405;28;20675;-54
2022/01/18 05:02:50;;;;;;;13.73;5.53;;;5.60;99.90;;;;;;5110607;28;20196;-55
2022/01/18 05:05:25;;;;;;;11.63;5.25;;;5.60;99.90;;;;;;5112776;28;20717;-56
2022/01/18 05:07:53;;;;;;;13.73;5.72;;;5.60;99.90;;;;;;5111771;28;20299;-55
2022/01/18 05:10:23;;;;;;;10.27;4.95;;;5.60;99.90;;;;;;5111945;28;20223;-56
2022/01/18 05:12:53;;;;;;;7.38;4.78;;;5.60;99.90;;;;;;5114283;28;20194;-55
2022/01/18 05:15:39;;;;;;;8.60;4.53;;;5.60;99.90;;;;;;5112082;28;20211;-55
2022/01/18 05:18:58;;;;;;;10.32;3.85;;;5.60;99.90;;;;;;5111914;28;20206;-55
2022/01/18 05:23:40;;;;;;;11.80;4.65;;;5.60;99.90;;;;;;5093477;28;20231;-56
2022/01/18 05:26:09;;;;;;;11.20;4.70;;;5.60;99.90;;;;;;5095785;28;20208;-56
2022/01/18 05:28:36;;;;;;;9.02;4.90;;;5.60;99.90;;;;;;5095902;28;20232;-55
2022/01/18 05:31:03;;;;;;;9.23;4.63;;;5.60;99.90;;;;;;5096046;28;20226;-56
2022/01/18 05:33:30;;;;;;;13.15;6.97;;;5.60;99.90;;;;;;5096097;28;20295;-56
2022/01/18 05:35:57;;;;;;;10.20;5.38;;;5.60;99.90;;;;;;5095748;28;20292;-56
2022/01/18 05:38:24;;;;;;;9.55;5.18;;;5.60;99.90;;;;;;5095615;28;20207;-55
2022/01/18 05:40:51;;;;;;;11.10;5.65;;;5.60;99.90;;;;;;5095437;28;20216;-56
2022/01/18 05:43:20;;;;;;;9.32;6.22;;;5.60;99.90;;;;;;5095834;28;20204;-56
2022/01/18 05:45:47;;;;;;;10.50;6.07;;;5.60;99.90;;;;;;5096165;28;20208;-55
2022/01/18 05:48:14;;;;;;;9.70;6.30;;;5.60;99.90;;;;;;5095399;28;20216;-55
2022/01/18 05:50:41;;;;;;;11.25;7.05;;;5.60;99.90;;;;;;5095483;28;20220;-54
2022/01/18 05:53:08;;;;;;;12.00;6.45;;;5.70;99.90;;;;;;5095405;28;20211;-56
2022/01/18 05:55:36;;;;;;;10.38;6.65;;;5.70;99.90;;;;;;5095493;28;20204;-56
2022/01/18 05:58:03;;;;;;;13.30;7.30;;;5.70;99.90;;;;;;5095597;28;20530;-56
2022/01/18 06:00:33;;;;;;;15.82;6.90;;;5.70;99.90;;;;;;5095360;28;20227;-56
2022/01/18 06:03:01;;;;;;;13.80;6.90;;;5.70;99.90;;;;;;5095176;28;20300;-54
2022/01/18 06:08:13;;;;;;;11.90;6.10;;;5.80;99.90;;;;;;5095086;28;20227;-54
2022/01/18 06:10:41;;;;;;;14.80;6.75;;;5.80;99.90;;;;;;5094951;28;20315;-54
2022/01/18 06:13:09;;;;;;;13.48;6.20;;;5.80;99.90;;;;;;5095099;28;20209;-55
2022/01/18 06:15:37;;;;;;;10.82;7.20;;;5.80;99.90;;;;;;5095344;28;20291;-56
2022/01/18 06:18:05;;;;;;;9.80;7.30;;;5.80;99.90;;;;;;5095171;28;20591;-55
2022/01/18 06:20:33;;;;;;;12.90;6.65;;;5.90;99.90;;;;;;5094677;28;20232;-55
2022/01/18 06:23:00;;;;;;;11.73;6.47;;;5.90;99.90;;;;;;5094805;28;20200;-55
2022/01/18 06:25:27;;;;;;;13.27;7.30;;;5.90;99.90;;;;;;5094728;28;20603;-55
2022/01/18 06:27:55;;;;;;;11.07;7.45;;;5.90;99.90;;;;;;5094509;28;20227;-55
2022/01/18 06:30:22;;;;;;;8.70;6.38;;;5.90;99.90;;;;;;5094139;28;20263;-54
2022/01/18 06:32:51;;;;;;;11.20;7.07;;;5.90;99.90;;;;;;5094477;28;20709;-54
2022/01/18 06:35:18;;;;;;;9.27;6.40;;;5.90;99.90;;;;;;5095027;28;20208;-55
2022/01/18 06:37:45;;;;;;;7.53;5.88;;;5.90;99.90;;;;;;5094805;28;20249;-56
2022/01/18 06:40:13;;;;;;;10.73;5.65;;;5.90;99.90;;;;;;5094871;28;20232;-55
2022/01/18 06:42:41;;;;;;;7.38;5.90;;;5.90;99.90;;;;;;5094407;28;20223;-55
2022/01/18 06:45:09;;;;;;;11.30;4.88;;;5.90;99.90;;;;;;5094585;28;20208;-54
2022/01/18 06:47:36;;;;;;;5.50;4.10;;;5.90;99.90;;;;;;5094766;28;20214;-54
2022/01/18 06:50:07;;;;;;;8.43;4.50;;;5.90;99.90;;;;;;5093975;28;20239;-54
2022/01/18 06:52:34;;;;;;;10.95;5.75;;;5.90;99.90;;;;;;5094012;28;20612;-55
2022/01/18 06:55:02;;;;;;;12.77;7.68;;;5.90;99.90;;;;;;5094101;28;20675;-54
2022/01/18 06:57:29;;;;;;;11.60;8.70;;;5.90;99.90;;;;;;5094266;28;20201;-54
2022/01/18 06:59:56;;;;;;;14.23;9.23;;;5.90;99.90;;;;;;5093733;28;20216;-56
2022/01/18 07:02:23;;;;;;;16.75;10.13;;;5.90;99.90;;;;;;5094403;28;20253;-55
2022/01/18 07:04:50;;;;;;;16.98;9.65;;;5.90;99.90;;;;;;5094403;28;20203;-55
2022/01/18 07:07:19;;;;;;;13.95;9.57;;;5.90;99.90;;;;;;5093975;28;20196;-55
2022/01/18 07:09:46;;;;;;;19.92;11.32;;;6.00;99.90;;;;;;5093745;28;20268;-56
2022/01/18 07:12:15;;;;;;;19.20;10.65;;;6.00;99.90;;;;;;5094107;28;20201;-56
2022/01/18 07:14:42;;;;;;;15.32;9.60;;;5.90;99.90;;;;;;5094142;28;20200;-55
2022/01/18 07:17:10;;;;;;;18.48;13.73;;;5.90;99.90;;;;;;5093994;28;20207;-55
2022/01/18 07:19:37;;;;;;;20.67;11.63;;;5.90;99.90;;;;;;5093509;28;20335;-56
2022/01/18 07:22:05;;;;;;;17.27;9.90;;;6.00;99.90;;;;;;5093999;28;20266;-55
2022/01/18 07:24:38;;;;;;;17.17;10.00;;;6.00;99.90;;;;;;5093792;28;20203;-55
2022/01/18 07:27:06;;;;;;;19.90;10.40;;;6.00;99.90;;;;;;5093981;28;20265;-56
2022/01/18 07:29:34;;;;;;;19.52;9.48;;;6.00;99.90;;;;;;5093703;28;20254;-55
2022/01/18 07:32:01;;;;;;;14.00;8.98;;;6.00;99.90;;;;;;5093232;28;20196;-55
2022/01/18 07:34:30;;;;;;;12.85;7.70;;;6.00;99.90;;;;;;5093092;28;20206;-54
2022/01/18 07:36:57;;;;;;;13.80;8.48;;;6.10;99.90;;;;;;5093262;28;20196;-55
2022/01/18 07:39:24;;;;;;;14.30;8.40;;;6.10;99.90;;;;;;5093191;28;20216;-55
2022/01/18 07:41:53;;;;;;;19.58;8.60;;;6.10;99.90;;;;;;5093055;28;20200;-55
2022/01/18 07:44:20;;;;;;;14.63;8.55;;;6.10;99.90;;;;;;5093406;28;20204;-57
2022/01/18 07:46:47;;;;;;;15.50;9.43;;;6.10;99.90;;;;;;5092869;28;20706;-56
2022/01/18 07:49:14;;;;;;;18.27;9.80;;;6.10;99.90;;;;;;5092715;28;20216;-56
2022/01/18 07:51:41;;;;;;;16.40;10.10;;;6.20;99.90;;;;;;5093146;28;20196;-56
2022/01/18 07:54:10;;;;;;;18.38;10.90;;;6.20;99.90;;;;;;5093327;28;20200;-55
2022/01/18 07:56:40;;;;;;;19.95;10.80;;;6.20;99.90;;;;;;5093560;28;20579;-56
2022/01/18 07:59:09;;;;;;;15.05;9.75;;;6.20;99.90;;;;;;5094492;28;20196;-55
2022/01/18 08:01:36;;;;;;;24.13;11.20;;;6.20;99.90;;;;;;5095203;28;20197;-56
2022/01/18 08:04:04;;;;;;;19.00;10.77;;;6.30;99.90;;;;;;5094482;28;20204;-56
2022/01/18 08:06:31;;;;;;;26.95;11.70;;;6.20;99.90;;;;;;5096032;28;20196;-56
2022/01/18 08:08:58;;;;;;;26.25;11.75;;;6.30;99.90;;;;;;5096392;28;20703;-55
2022/01/18 08:11:25;;;;;;;22.83;11.57;;;6.30;99.90;;;;;;5096409;28;20195;-57
2022/01/18 08:13:52;;;;;;;18.08;10.85;;;6.30;99.90;;;;;;5096613;28;20203;-57
2022/01/18 08:16:46;;;;;;;21.67;12.00;;;6.30;99.90;;;;;;5096394;28;20200;-56
2022/01/18 08:19:14;;;;;;;23.35;11.55;;;6.30;99.90;;;;;;5095640;28;20180;-56
2022/01/18 08:21:41;;;;;;;28.50;12.45;;;6.30;99.90;;;;;;5095272;28;20191;-56
2022/01/18 08:24:09;;;;;;;22.80;12.65;;;6.30;99.90;;;;;;5095640;28;20204;-57
2022/01/18 08:26:36;;;;;;;27.88;13.40;;;6.30;99.90;;;;;;5094681;28;20234;-56
2022/01/18 08:29:03;;;;;;;18.83;13.40;;;6.30;99.90;;;;;;5094388;28;20220;-56
2022/01/18 08:31:31;;;;;;;31.60;14.27;;;6.30;99.90;;;;;;5094864;28;20208;-57
2022/01/18 08:33:58;;;;;;;23.55;12.63;;;6.40;99.90;;;;;;5094672;28;20212;-57
2022/01/18 08:36:26;;;;;;;21.15;12.52;;;6.50;99.90;;;;;;5094507;28;20208;-55
2022/01/18 08:38:53;;;;;;;24.58;12.35;;;6.50;99.90;;;;;;5093793;28;20219;-57
2022/01/18 08:41:21;;;;;;;27.42;13.23;;;6.50;99.90;;;;;;5093898;28;20203;-57
2022/01/18 08:43:48;;;;;;;24.33;12.88;;;6.60;99.90;;;;;;5094088;28;20245;-57
2022/01/18 08:46:18;;;;;;;28.30;13.82;;;6.60;99.90;;;;;;5093867;28;20209;-57
2022/01/18 08:48:48;;;;;;;21.55;12.43;;;6.60;99.90;;;;;;5093746;28;20212;-57
2022/01/18 08:51:16;;;;;;;29.20;13.00;;;6.50;99.90;;;;;;5094139;28;20312;-57
2022/01/18 08:53:48;;;;;;;31.38;13.45;;;6.50;99.90;;;;;;5094111;28;20292;-57
2022/01/18 08:56:15;;;;;;;21.23;11.05;;;6.50;99.90;;;;;;5098708;28;20242;-57
2022/01/18 08:58:42;;;;;;;29.63;11.60;;;6.50;99.90;;;;;;5097964;28;20613;-56
2022/01/18 09:01:10;;;;;;;36.28;11.80;;;6.50;99.90;;;;;;5098281;28;20228;-57
2022/01/18 09:03:37;;;;;;;31.48;11.80;;;6.50;99.90;;;;;;5097289;28;20222;-55
2022/01/18 09:06:07;;;;;;;35.17;11.52;;;6.50;99.90;;;;;;5097782;28;20222;-57
2022/01/18 09:08:36;;;;;;;23.10;11.30;;;6.50;99.90;;;;;;5096898;28;20220;-57
2022/01/18 09:11:03;;;;;;;29.15;12.55;;;6.50;99.90;;;;;;5096901;28;20255;-57
2022/01/18 09:13:34;;;;;;;28.17;12.73;;;6.50;99.90;;;;;;5096028;28;20290;-57
2022/01/18 09:16:01;;;;;;;29.30;12.23;;;6.60;99.90;;;;;;5097224;28;20231;-57
2022/01/18 09:18:28;;;;;;;28.60;12.40;;;6.60;99.90;;;;;;5095997;28;20200;-57
2022/01/18 09:20:55;;;;;;;26.77;12.00;;;6.60;99.90;;;;;;5096064;28;20600;-58
2022/01/18 09:23:24;;;;;;;22.33;12.80;;;6.60;99.90;;;;;;5095880;28;20542;-57
2022/01/18 09:25:51;;;;;;;30.00;12.15;;;6.60;99.90;;;;;;5096026;28;20549;-57
2022/01/18 09:28:18;;;;;;;28.75;11.38;;;6.60;99.90;;;;;;5096974;28;20204;-56
2022/01/18 09:30:45;;;;;;;26.13;12.32;;;6.70;99.90;;;;;;5097076;28;20235;-57
2022/01/18 09:33:13;;;;;;;26.50;11.75;;;6.80;99.90;;;;;;5096648;28;20200;-56
2022/01/18 09:35:40;;;;;;;29.33;11.45;;;6.90;99.90;;;;;;5096179;28;20596;-57
2022/01/18 09:38:08;;;;;;;24.88;10.75;;;7.00;99.90;;;;;;5095940;28;20519;-57
2022/01/18 09:40:38;;;;;;;21.45;9.90;;;7.20;99.90;;;;;;5095730;28;20220;-57
2022/01/18 09:43:10;;;;;;;24.60;9.55;;;7.30;99.90;;;;;;5097054;28;20253;-57
2022/01/18 09:45:39;;;;;;;21.40;10.55;;;7.30;99.90;;;;;;5095850;28;20210;-56
2022/01/18 09:48:07;;;;;;;22.83;11.35;;;7.30;99.90;;;;;;5095311;28;20204;-57
2022/01/18 09:50:36;;;;;;;30.77;10.30;;;7.20;99.90;;;;;;5095629;28;20234;-56
2022/01/18 09:53:06;;;;;;;29.10;12.52;;;7.20;99.90;;;;;;5095298;28;20287;-57
2022/01/18 09:55:34;;;;;;;22.90;10.60;;;7.10;99.90;;;;;;5096054;28;20291;-57
2022/01/18 09:58:06;;;;;;;17.63;9.80;;;7.10;99.90;;;;;;5096025;28;20196;-58
2022/01/18 10:00:34;;;;;;;14.73;8.35;;;7.20;99.90;;;;;;5095142;28;20251;-57
2022/01/18 10:03:01;;;;;;;25.45;9.48;;;7.10;99.90;;;;;;5094837;28;20200;-56
2022/01/18 10:05:30;;;;;;;22.45;8.93;;;7.10;99.90;;;;;;5094793;28;20200;-57
2022/01/18 10:08:00;;;;;;;21.88;10.05;;;7.20;99.90;;;;;;5094857;28;20196;-55
2022/01/18 10:10:47;;;;;;;22.23;9.45;;;7.20;99.90;;;;;;5094401;28;20691;-58
2022/01/18 10:13:22;;;;;;;20.17;9.82;;;7.30;99.90;;;;;;5095244;28;20268;-56
2022/01/18 10:16:04;;;;;;;22.92;8.93;;;7.40;99.90;;;;;;5095533;28;20210;-57
2022/01/18 10:18:42;;;;;;;19.27;9.68;;;7.50;99.90;;;;;;5095256;28;20188;-57
2022/01/18 10:21:09;;;;;;;20.75;10.05;;;7.60;99.90;;;;;;5104623;22;20229;-55
2022/01/18 10:23:38;;;;;;;20.35;9.15;;;7.60;99.90;;;;;;5074366;28;20197;-56
2022/01/18 10:26:20;;;;;;;22.10;9.05;;;7.60;99.90;;;;;;5074479;28;20208;-55
2022/01/18 10:28:58;;;;;;;24.90;10.43;;;7.60;99.90;;;;;;5074433;28;20204;-55
2022/01/18 10:31:35;;;;;;;18.17;9.48;;;7.70;99.90;;;;;;5091729;28;20224;-56
2022/01/18 10:34:22;;;;;;;18.98;9.10;;;7.70;99.90;;;;;;5094543;28;20200;-55
2022/01/18 10:37:04;;;;;;;17.05;9.13;;;7.70;99.90;;;;;;5094377;28;20656;-56
2022/01/18 10:39:34;;;;;;;20.58;9.10;;;7.70;99.90;;;;;;5093988;28;20192;-56
2022/01/18 10:42:13;;;;;;;25.20;9.60;;;7.60;99.90;;;;;;5094309;28;20537;-56
2022/01/18 10:44:42;;;;;;;29.02;9.65;;;7.50;99.90;;;;;;5094384;28;20288;-56
2022/01/18 10:47:11;;;;;;;22.20;10.23;;;7.40;99.90;;;;;;5093700;28;20200;-56
2022/01/18 10:49:40;;;;;;;17.80;10.00;;;7.40;99.90;;;;;;5094158;28;20223;-55
2022/01/18 10:52:10;;;;;;;21.95;10.00;;;7.40;99.90;;;;;;5093841;28;20201;-55
2022/01/18 10:54:39;;;;;;;20.77;9.73;;;7.40;99.90;;;;;;5093778;28;20668;-55
2022/01/18 10:57:08;;;;;;;22.67;10.80;;;7.40;99.90;;;;;;5093969;28;20204;-55
2022/01/18 10:59:38;;;;;;;27.92;11.57;;;7.40;99.90;;;;;;5093863;28;20197;-55
2022/01/18 11:02:13;;;;;;;23.88;10.10;;;7.40;99.90;;;;;;5093998;28;20184;-53
2022/01/18 11:04:43;;;;;;;21.13;10.50;;;7.40;99.90;;;;;;5093683;28;20196;-55
2022/01/18 11:07:11;;;;;;;37.90;12.73;;;7.40;99.90;;;;;;5093354;28;20600;-55
2022/01/18 11:09:39;;;;;;;25.13;11.15;;;7.40;99.90;;;;;;5093647;28;20244;-55
2022/01/18 11:12:08;;;;;;;19.70;10.70;;;7.40;99.90;;;;;;5093106;28;20200;-54
2022/01/18 11:14:37;;;;;;;30.40;12.32;;;7.50;99.90;;;;;;5093425;28;20694;-54
2022/01/18 11:17:07;;;;;;;26.92;10.95;;;7.50;99.90;;;;;;5092987;28;20210;-57
2022/01/18 11:19:38;;;;;;;31.75;11.25;;;7.50;99.90;;;;;;5093521;28;20197;-57
2022/01/18 11:22:08;;;;;;;22.77;10.55;;;7.50;99.90;;;;;;5093577;28;20189;-55
2022/01/18 11:24:38;;;;;;;24.80;10.68;;;7.50;99.90;;;;;;5093568;28;20284;-56
2022/01/18 11:27:10;;;;;;;24.38;10.40;;;7.50;99.90;;;;;;5093128;28;20196;-57
2022/01/18 11:29:37;;;;;;;32.38;11.45;;;7.50;99.90;;;;;;5092914;28;20676;-56
2022/01/18 11:32:05;;;;;;;25.05;10.23;;;7.60;99.90;;;;;;5092832;28;20200;-56
2022/01/18 11:34:55;;;;;;;27.25;11.00;;;7.60;99.90;;;;;;5093010;28;20207;-55
2022/01/18 11:37:29;;;;;;;21.02;10.20;;;7.70;99.90;;;;;;5092802;28;20654;-56
2022/01/18 11:40:01;;;;;;;26.35;10.18;;;7.80;99.90;;;;;;5092866;28;20244;-56
2022/01/18 11:42:40;;;;;;;28.23;11.52;;;7.80;99.90;;;;;;5092698;28;20207;-56
2022/01/18 11:45:33;;;;;;;23.98;9.80;;;7.90;99.90;;;;;;5092944;28;20204;-56
2022/01/18 11:48:03;;;;;;;27.33;10.73;;;8.00;99.90;;;;;;5093111;28;20207;-57
2022/01/18 11:50:36;;;;;;;25.88;10.20;;;8.00;99.90;;;;;;5092886;28;20683;-56
2022/01/18 11:53:24;;;;;;;22.58;8.75;;;8.00;99.90;;;;;;5092875;28;20189;-55
2022/01/18 11:55:52;;;;;;;15.80;8.32;;;8.00;99.90;;;;;;5093547;28;20216;-56
2022/01/18 11:58:19;;;;;;;22.15;8.90;;;8.00;99.90;;;;;;5093089;28;20207;-55
2022/01/18 12:00:53;;;;;;;28.70;10.90;;;8.00;99.90;;;;;;5093147;28;20220;-56
2022/01/18 12:03:23;;;;;;;24.25;10.00;;;8.00;99.90;;;;;;5092986;28;20243;-56
2022/01/18 12:05:52;;;;;;;25.77;8.23;;;8.00;99.90;;;;;;5093249;28;20195;-56
2022/01/18 12:08:38;;;;;;;24.52;9.80;;;8.00;99.90;;;;;;5092575;28;20200;-56
2022/01/18 12:11:07;;;;;;;25.08;8.48;;;8.00;99.90;;;;;;5092390;28;20220;-56
2022/01/18 12:13:45;;;;;;;21.10;8.10;;;8.00;99.90;;;;;;5092995;28;20228;-56
2022/01/18 12:16:27;;;;;;;21.15;9.20;;;8.00;99.90;;;;;;5093067;28;20252;-56
2022/01/18 12:18:57;;;;;;;19.73;8.35;;;8.00;99.90;;;;;;5093046;28;20601;-57
2022/01/18 12:21:29;;;;;;;28.40;8.70;;;8.00;99.90;;;;;;5092856;28;20224;-56
2022/01/18 12:23:57;;;;;;;13.40;8.60;;;8.00;99.90;;;;;;5093849;28;20636;-56
2022/01/18 12:26:38;;;;;;;20.15;8.82;;;8.00;99.90;;;;;;5092729;28;20680;-56
2022/01/18 12:29:34;;;;;;;20.48;8.20;;;8.00;99.90;;;;;;5094152;28;20271;-56
2022/01/18 12:35:02;;;;;;;17.48;7.38;;;8.10;99.90;;;;;;5097051;28;20184;-56
2022/01/18 12:37:45;;;;;;;15.63;7.72;;;8.10;99.90;;;;;;5097097;28;20188;-55
2022/01/18 12:40:28;;;;;;;21.58;7.53;;;8.10;99.90;;;;;;5097242;28;20349;-55
2022/01/18 12:45:49;;;;;;;20.70;7.80;;;8.00;99.90;;;;;;5096587;28;20611;-55
2022/01/18 12:48:16;;;;;;;18.92;7.55;;;8.00;99.90;;;;;;5096667;28;20563;-55
2022/01/18 12:50:46;;;;;;;13.00;7.43;;;8.00;99.90;;;;;;5096253;28;20259;-56
2022/01/18 12:53:16;;;;;;;22.67;8.45;;;8.00;99.90;;;;;;5096395;28;20581;-56
2022/01/18 12:55:46;;;;;;;16.33;7.95;;;8.00;99.90;;;;;;5096354;28;20193;-55
2022/01/18 12:58:16;;;;;;;15.30;6.65;;;8.10;99.90;;;;;;5096502;28;20699;-56
2022/01/18 13:00:46;;;;;;;13.68;5.40;;;8.10;99.90;;;;;;5096851;28;20571;-56
2022/01/18 13:03:22;;;;;;;15.68;5.38;;;8.20;99.90;;;;;;5096786;28;20196;-55
2022/01/18 13:05:51;;;;;;;14.05;5.65;;;8.20;99.90;;;;;;5096182;28;20684;-57
2022/01/18 13:08:22;;;;;;;12.27;6.28;;;8.20;99.90;;;;;;5097367;28;20207;-57
2022/01/18 13:10:51;;;;;;;15.52;6.28;;;8.20;99.90;;;;;;5096967;28;20660;-57
2022/01/18 13:13:22;;;;;;;10.80;5.05;;;8.20;99.90;;;;;;5096909;28;20215;-57
2022/01/18 13:16:04;;;;;;;16.48;4.85;;;8.20;99.90;;;;;;5096154;28;20667;-57
2022/01/18 13:24:38;;;;;;;12.07;4.78;;;8.20;99.90;;;;;;5096272;28;20183;-57
2022/01/18 13:27:12;;;;;;;14.00;5.00;;;8.20;99.90;;;;;;5096486;28;20200;-56
2022/01/18 13:29:39;;;;;;;15.05;4.82;;;8.20;99.90;;;;;;5095994;28;20234;-57
2022/01/18 13:32:08;;;;;;;11.05;4.45;;;8.20;99.90;;;;;;5096470;28;20665;-57
2022/01/18 13:34:38;;;;;;;13.25;5.97;;;8.20;99.90;;;;;;5096663;28;20200;-56
2022/01/18 13:37:08;;;;;;;12.90;4.45;;;8.20;99.90;;;;;;5096124;28;20208;-56
2022/01/18 13:39:44;;;;;;;10.23;4.43;;;8.20;99.90;;;;;;5095424;28;20238;-56
2022/01/18 13:42:12;;;;;;;9.88;3.30;;;8.20;99.90;;;;;;5096656;28;20200;-56
2022/01/18 13:44:40;;;;;;;14.40;3.67;;;8.20;99.90;;;;;;5098325;28;20204;-56
2022/01/18 13:47:15;;;;;;;7.93;3.15;;;8.20;99.90;;;;;;5097272;28;20207;-56
2022/01/18 13:49:43;;;;;;;9.48;3.55;;;8.20;99.90;;;;;;5098652;28;20591;-57
2022/01/18 13:52:12;;;;;;;12.10;2.75;;;8.20;99.90;;;;;;5097057;28;20208;-55
2022/01/18 13:54:51;;;;;;;9.38;2.80;;;8.20;99.90;;;;;;5096084;28;20208;-57
2022/01/18 13:57:20;;;;;;;11.00;4.38;;;8.20;99.90;;;;;;5095945;28;20184;-57
2022/01/18 13:59:49;;;;;;;5.38;2.83;;;8.20;99.90;;;;;;5095561;28;20220;-56
2022/01/18 14:02:18;;;;;;;11.57;3.67;;;8.20;99.90;;;;;;5095332;28;20575;-54
2022/01/18 14:04:46;;;;;;;10.80;4.03;;;8.10;99.90;;;;;;5095405;28;20227;-55
2022/01/18 14:07:14;;;;;;;11.70;3.60;;;8.10;99.90;;;;;;5095052;28;20249;-55